Time;durP1;ratioP1;P1;durP2;ratioP2;P2;SDS_P1;SDS_P2;PMS_P1;PMS_P2;Temp;Humidity;BMP_temperature;BMP_pressure;BME280_temperature;BME280_humidity;BME280_pressure;Samples;Min_cycle;Max_cycle;Signal;HPM_P1;HPM_P2
2022/12/30 00:00:46;;;;;;;;;3.00;3.00;;;;;;;;5090542;27;45524;-66
2022/12/30 00:03:11;;;;;;;;;4.75;2.75;;;;;;;;5090398;27;48427;-66
2022/12/30 00:05:37;;;;;;;;;9.00;4.75;;;;;;;;5095310;27;47245;-65
2022/12/30 00:08:02;;;;;;;;;6.00;4.00;;;;;;;;5096449;27;45387;-65
2022/12/30 00:10:27;;;;;;;;;7.50;3.00;;;;;;;;5097047;27;45411;-65
2022/12/30 00:34:48;;;;;;;;;0.75;0.00;;;;;;;;5090149;27;45386;-65
2022/12/30 00:37:13;;;;;;;;;10.75;4.00;;;;;;;;5094844;27;47243;-65
2022/12/30 00:39:39;;;;;;;;;10.67;6.00;;;;;;;;5094254;27;45396;-66
2022/12/30 00:44:48;;;;;;;;;5.50;3.25;;;;;;;;5093348;27;45842;-66
2022/12/30 00:47:13;;;;;;;;;14.33;8.00;;;;;;;;5095600;27;45371;-65
2022/12/30 00:57:51;;;;;;;;;7.50;4.00;;;;;;;;5089736;27;45690;-65
2022/12/30 01:00:16;;;;;;;;;8.75;6.00;;;;;;;;5096333;27;45312;-65
2022/12/30 01:02:42;;;;;;;;;9.25;7.00;;;;;;;;5094382;27;45415;-66
2022/12/30 01:05:07;;;;;;;;;8.75;6.00;;;;;;;;5093207;27;46910;-66
2022/12/30 01:07:32;;;;;;;;;7.00;5.00;;;;;;;;5095136;27;45693;-66
2022/12/30 01:09:58;;;;;;;;;9.25;7.00;;;;;;;;5094253;27;45544;-66
2022/12/30 01:12:24;;;;;;;;;8.00;4.75;;;;;;;;5094289;27;45743;-66
2022/12/30 01:14:50;;;;;;;;;7.75;4.50;;;;;;;;5096482;27;45394;-66
2022/12/30 01:17:17;;;;;;;;;7.25;5.00;;;;;;;;5096485;27;45497;-66
2022/12/30 01:19:42;;;;;;;;;5.75;4.00;;;;;;;;5096071;27;45383;-66
2022/12/30 01:22:08;;;;;;;;;9.67;6.00;;;;;;;;5095592;27;45336;-66
2022/12/30 01:24:33;;;;;;;;;9.00;6.75;;;;;;;;5096177;27;45417;-66
2022/12/30 01:26:58;;;;;;;;;8.25;4.00;;;;;;;;5090413;27;46180;-66
2022/12/30 01:29:36;;;;;;;;;7.00;5.00;;;;;;;;5091653;27;45398;-66
2022/12/30 01:32:01;;;;;;;;;7.00;4.00;;;;;;;;5089099;27;45452;-66
2022/12/30 01:34:26;;;;;;;;;5.50;4.25;;;;;;;;5094528;27;45204;-66
2022/12/30 01:36:52;;;;;;;;;8.00;4.00;;;;;;;;5093962;27;46891;-65
2022/12/30 01:39:17;;;;;;;;;7.00;4.00;;;;;;;;5094443;27;45370;-66
2022/12/30 01:41:43;;;;;;;;;7.25;3.50;;;;;;;;5094750;27;45456;-66
2022/12/30 01:44:26;;;;;;;;;5.25;4.00;;;;;;;;5096066;27;45236;-66
2022/12/30 01:46:51;;;;;;;;;7.25;3.25;;;;;;;;5099559;27;46426;-66
2022/12/30 01:49:17;;;;;;;;;7.25;4.25;;;;;;;;5099354;27;45713;-66
2022/12/30 01:51:42;;;;;;;;;9.75;5.00;;;;;;;;5100044;27;45508;-66
2022/12/30 01:54:07;;;;;;;;;2.50;1.50;;;;;;;;5098942;27;45207;-66
2022/12/30 01:56:35;;;;;;;;;6.00;4.00;;;;;;;;5100166;27;46689;-66
2022/12/30 01:59:06;;;;;;;;;2.75;2.75;;;;;;;;5099313;27;45330;-66
2022/12/30 02:01:36;;;;;;;;;4.75;3.00;;;;;;;;5099407;27;45282;-65
2022/12/30 02:04:09;;;;;;;;;4.50;2.50;;;;;;;;5111392;27;45426;-65
2022/12/30 02:06:44;;;;;;;;;5.00;4.00;;;;;;;;5087655;27;45456;-65
2022/12/30 02:09:09;;;;;;;;;7.00;3.25;;;;;;;;5095262;27;45468;-65
2022/12/30 02:11:34;;;;;;;;;5.25;4.75;;;;;;;;5099923;27;45463;-65
2022/12/30 02:14:00;;;;;;;;;6.25;2.50;;;;;;;;5099812;27;45477;-65
2022/12/30 02:16:25;;;;;;;;;6.00;3.75;;;;;;;;5099018;27;46645;-65
2022/12/30 02:19:03;;;;;;;;;7.50;3.00;;;;;;;;5098399;27;45354;-65
2022/12/30 02:21:37;;;;;;;;;4.75;3.00;;;;;;;;5080601;27;45409;-65
2022/12/30 02:24:27;;;;;;;;;7.00;4.50;;;;;;;;5099965;27;45484;-65
2022/12/30 02:27:02;;;;;;;;;4.50;3.00;;;;;;;;5060841;28;46500;-65
2022/12/30 02:29:43;;;;;;;;;4.00;3.00;;;;;;;;5079160;28;45375;-65
2022/12/30 02:32:11;;;;;;;;;6.00;3.00;;;;;;;;5095523;27;45402;-65
2022/12/30 02:34:42;;;;;;;;;5.00;2.50;;;;;;;;5099990;27;45339;-65
2022/12/30 02:37:07;;;;;;;;;2.50;1.00;;;;;;;;5099357;27;45377;-65
2022/12/30 02:39:35;;;;;;;;;9.25;3.75;;;;;;;;5098762;27;45469;-65
2022/12/30 02:45:02;;;;;;;;;4.25;3.00;;;;;;;;5098800;27;45448;-65
2022/12/30 02:47:57;;;;;;;;;3.50;2.50;;;;;;;;5098619;27;45355;-66
2022/12/30 02:53:10;;;;;;;;;1.75;1.00;;;;;;;;5099334;27;45330;-66
2022/12/30 02:55:35;;;;;;;;;3.75;1.50;;;;;;;;5097837;27;45537;-66
2022/12/30 02:58:01;;;;;;;;;10.25;2.75;;;;;;;;5098193;27;45769;-66
2022/12/30 03:06:31;;;;;;;;;4.25;3.50;;;;;;;;5098768;27;45372;-66
2022/12/30 03:09:02;;;;;;;;;5.25;2.00;;;;;;;;5098235;27;45457;-66
2022/12/30 03:11:31;;;;;;;;;9.75;4.25;;;;;;;;5097812;27;45283;-66
2022/12/30 03:14:08;;;;;;;;;7.75;4.00;;;;;;;;5099188;27;45277;-66
2022/12/30 03:16:39;;;;;;;;;5.00;1.25;;;;;;;;5097740;27;45539;-66
2022/12/30 03:19:10;;;;;;;;;4.75;2.50;;;;;;;;5097685;27;46249;-66
2022/12/30 03:21:37;;;;;;;;;4.25;2.00;;;;;;;;5098833;27;45287;-66
2022/12/30 03:27:03;;;;;;;;;5.00;2.25;;;;;;;;5098077;27;45465;-66
2022/12/30 03:29:29;;;;;;;;;7.25;3.00;;;;;;;;5091976;27;45527;-66
2022/12/30 03:31:55;;;;;;;;;3.00;3.00;;;;;;;;5098497;27;45354;-66
2022/12/30 03:34:21;;;;;;;;;4.00;3.00;;;;;;;;5098675;27;45245;-66
2022/12/30 03:36:48;;;;;;;;;6.00;3.00;;;;;;;;5098938;27;45353;-66
2022/12/30 03:39:16;;;;;;;;;2.75;2.75;;;;;;;;5098643;27;46302;-66
2022/12/30 03:41:43;;;;;;;;;3.25;2.75;;;;;;;;5097894;27;45399;-66
2022/12/30 03:44:09;;;;;;;;;4.00;2.75;;;;;;;;5097540;27;45477;-67
2022/12/30 03:46:34;;;;;;;;;8.25;3.50;;;;;;;;5098716;27;45431;-66
2022/12/30 03:48:59;;;;;;;;;3.75;3.00;;;;;;;;5098053;27;46095;-66
2022/12/30 03:51:25;;;;;;;;;7.25;4.00;;;;;;;;5098376;27;45521;-67
2022/12/30 03:53:51;;;;;;;;;2.25;2.25;;;;;;;;5098490;27;45441;-66
2022/12/30 03:56:16;;;;;;;;;4.75;4.00;;;;;;;;5097889;27;45366;-66
2022/12/30 03:58:41;;;;;;;;;7.00;3.00;;;;;;;;5097303;27;45556;-66
2022/12/30 04:01:06;;;;;;;;;2.25;2.25;;;;;;;;5097301;27;45673;-66
2022/12/30 04:03:32;;;;;;;;;5.75;3.75;;;;;;;;5097481;27;45611;-66
2022/12/30 04:05:57;;;;;;;;;6.50;3.25;;;;;;;;5097378;27;45375;-66
2022/12/30 04:08:23;;;;;;;;;3.75;2.25;;;;;;;;5097088;27;46443;-66
2022/12/30 04:10:48;;;;;;;;;6.50;4.25;;;;;;;;5098073;27;45435;-66
2022/12/30 04:13:13;;;;;;;;;5.00;4.00;;;;;;;;5097428;27;45492;-66
2022/12/30 04:15:38;;;;;;;;;10.75;4.75;;;;;;;;5098470;27;45347;-66
2022/12/30 04:18:04;;;;;;;;;9.25;7.00;;;;;;;;5097171;27;45434;-66
2022/12/30 04:20:29;;;;;;;;;4.50;4.00;;;;;;;;5097429;27;45161;-66
2022/12/30 04:22:58;;;;;;;;;2.50;2.00;;;;;;;;5097281;27;45286;-66
2022/12/30 04:25:24;;;;;;;;;6.25;3.00;;;;;;;;5097462;27;45583;-66
2022/12/30 04:27:49;;;;;;;;;7.50;4.50;;;;;;;;5080477;27;46188;-66
2022/12/30 04:30:14;;;;;;;;;5.00;3.00;;;;;;;;5097617;27;45272;-66
2022/12/30 04:32:39;;;;;;;;;3.75;3.75;;;;;;;;5097815;27;45473;-66
2022/12/30 04:35:05;;;;;;;;;10.25;4.50;;;;;;;;5110497;27;45291;-66
2022/12/30 04:37:30;;;;;;;;;7.00;6.67;;;;;;;;5118242;27;45427;-64
2022/12/30 04:39:55;;;;;;;;;7.00;4.00;;;;;;;;5118407;27;45579;-64
2022/12/30 04:42:20;;;;;;;;;7.00;7.00;;;;;;;;5115773;27;45493;-64
2022/12/30 04:44:45;;;;;;;;;2.75;2.75;;;;;;;;5097759;27;45310;-64
2022/12/30 04:47:11;;;;;;;;;10.00;6.33;;;;;;;;5097576;27;46367;-64
2022/12/30 04:49:36;;;;;;;;;5.50;5.50;;;;;;;;5097526;27;45554;-64
2022/12/30 04:52:01;;;;;;;;;11.25;5.00;;;;;;;;5097129;27;45563;-65
2022/12/30 04:54:26;;;;;;;;;8.00;3.00;;;;;;;;5096696;27;46904;-65
2022/12/30 04:56:52;;;;;;;;;13.25;5.75;;;;;;;;5096666;27;47162;-65
2022/12/30 04:59:17;;;;;;;;;10.50;8.75;;;;;;;;5096979;27;45573;-65
2022/12/30 05:01:42;;;;;;;;;7.33;5.00;;;;;;;;5097071;27;45540;-66
2022/12/30 05:04:07;;;;;;;;;8.00;7.00;;;;;;;;5097562;27;45430;-66
2022/12/30 05:06:32;;;;;;;;;8.67;5.00;;;;;;;;5097059;27;46650;-66
2022/12/30 05:08:58;;;;;;;;;11.25;7.50;;;;;;;;5096527;27;45421;-65
2022/12/30 05:11:23;;;;;;;;;7.25;4.25;;;;;;;;5097272;27;45465;-65
2022/12/30 05:13:48;;;;;;;;;4.33;3.00;;;;;;;;5097518;27;45408;-65
2022/12/30 05:16:13;;;;;;;;;5.75;4.00;;;;;;;;5096770;27;46505;-65
2022/12/30 05:18:39;;;;;;;;;9.67;6.33;;;;;;;;5097543;27;45457;-65
2022/12/30 05:21:04;;;;;;;;;9.67;7.00;;;;;;;;5100732;27;45372;-65
2022/12/30 05:26:15;;;;;;;;;8.00;7.67;;;;;;;;5099473;27;45346;-65
2022/12/30 05:28:44;;;;;;;;;11.00;9.00;;;;;;;;5100569;27;45267;-65
2022/12/30 05:31:10;;;;;;;;;12.00;7.00;;;;;;;;5100234;27;45511;-65
2022/12/30 05:33:35;;;;;;;;;11.00;7.67;;;;;;;;5099684;27;45409;-65
2022/12/30 05:36:00;;;;;;;;;16.00;8.67;;;;;;;;5100436;27;45997;-65
2022/12/30 05:38:25;;;;;;;;;11.00;9.33;;;;;;;;5100469;27;45355;-65
2022/12/30 05:40:51;;;;;;;;;11.67;10.00;;;;;;;;5100589;27;45391;-65
2022/12/30 05:43:16;;;;;;;;;16.67;12.00;;;;;;;;5098311;27;45665;-65
2022/12/30 05:45:41;;;;;;;;;14.33;10.00;;;;;;;;5100333;27;45408;-65
2022/12/30 05:48:06;;;;;;;;;11.33;10.67;;;;;;;;5100469;27;45918;-65
2022/12/30 05:50:32;;;;;;;;;21.33;14.33;;;;;;;;5099371;27;45330;-65
2022/12/30 05:52:57;;;;;;;;;11.00;9.67;;;;;;;;5100537;27;45685;-65
2022/12/30 05:55:22;;;;;;;;;12.33;11.67;;;;;;;;5099841;27;45473;-65
2022/12/30 05:57:47;;;;;;;;;18.00;11.00;;;;;;;;5099217;27;45389;-65
2022/12/30 06:00:13;;;;;;;;;15.67;13.00;;;;;;;;5100420;27;45381;-66
2022/12/30 06:02:38;;;;;;;;;16.33;14.00;;;;;;;;5100284;27;45244;-65
2022/12/30 06:05:04;;;;;;;;;11.67;9.33;;;;;;;;5099770;27;46476;-65
2022/12/30 06:07:30;;;;;;;;;22.67;13.67;;;;;;;;5097389;27;46278;-65
2022/12/30 06:09:55;;;;;;;;;11.00;11.00;;;;;;;;5095296;27;45379;-65
2022/12/30 06:12:20;;;;;;;;;15.00;13.33;;;;;;;;5080911;27;45419;-65
2022/12/30 06:14:45;;;;;;;;;14.67;11.00;;;;;;;;5079068;27;46468;-65
2022/12/30 06:17:10;;;;;;;;;15.67;13.00;;;;;;;;5099542;27;45408;-65
2022/12/30 06:19:36;;;;;;;;;21.33;15.67;;;;;;;;5100016;27;45369;-65
2022/12/30 06:22:01;;;;;;;;;16.67;14.00;;;;;;;;5099535;27;45505;-65
2022/12/30 06:24:26;;;;;;;;;25.00;18.00;;;;;;;;5099239;27;45368;-65
2022/12/30 06:26:51;;;;;;;;;17.67;16.00;;;;;;;;5099064;27;45488;-65
2022/12/30 06:29:16;;;;;;;;;15.33;12.33;;;;;;;;5099772;27;45325;-65
2022/12/30 06:31:42;;;;;;;;;20.67;17.33;;;;;;;;5097899;27;46789;-65
2022/12/30 06:34:07;;;;;;;;;18.67;14.33;;;;;;;;5098739;27;46458;-65
2022/12/30 06:36:32;;;;;;;;;17.00;12.00;;;;;;;;5098141;27;45513;-65
2022/12/30 06:38:58;;;;;;;;;16.00;10.67;;;;;;;;5099581;27;45338;-65
2022/12/30 06:41:23;;;;;;;;;20.00;16.33;;;;;;;;5099937;27;45436;-65
2022/12/30 06:43:48;;;;;;;;;18.33;13.67;;;;;;;;5099229;27;45444;-65
2022/12/30 06:46:13;;;;;;;;;18.33;12.33;;;;;;;;5097256;27;45527;-66
2022/12/30 06:48:39;;;;;;;;;14.33;13.67;;;;;;;;5096340;27;45431;-66
2022/12/30 06:51:04;;;;;;;;;13.00;11.67;;;;;;;;5098607;27;45450;-65
2022/12/30 06:53:29;;;;;;;;;14.67;12.00;;;;;;;;5099091;27;46392;-65
2022/12/30 06:55:54;;;;;;;;;14.33;10.00;;;;;;;;5099154;27;45401;-65
2022/12/30 06:58:20;;;;;;;;;12.33;10.00;;;;;;;;5099458;27;45294;-65
2022/12/30 07:00:45;;;;;;;;;11.33;9.67;;;;;;;;5099488;27;45393;-65
2022/12/30 07:03:11;;;;;;;;;16.33;11.00;;;;;;;;5099040;27;45509;-65
2022/12/30 07:05:36;;;;;;;;;9.67;8.00;;;;;;;;5097075;27;45449;-66
2022/12/30 07:08:01;;;;;;;;;8.67;7.00;;;;;;;;5098485;27;45316;-65
2022/12/30 07:10:27;;;;;;;;;8.33;7.67;;;;;;;;5099090;27;45348;-65
2022/12/30 07:12:52;;;;;;;;;8.67;8.67;;;;;;;;5099096;27;46360;-66
2022/12/30 07:15:17;;;;;;;;;10.67;8.00;;;;;;;;5098884;27;45288;-66
2022/12/30 07:17:42;;;;;;;;;11.00;9.00;;;;;;;;5099175;27;45200;-65
2022/12/30 07:20:08;;;;;;;;;8.50;5.75;;;;;;;;5097561;27;45274;-66
2022/12/30 07:22:33;;;;;;;;;8.75;8.75;;;;;;;;5098351;27;46446;-65
2022/12/30 07:24:58;;;;;;;;;9.75;7.00;;;;;;;;5098277;27;45339;-65
2022/12/30 07:27:24;;;;;;;;;9.33;8.00;;;;;;;;5098812;27;45327;-65
2022/12/30 07:29:49;;;;;;;;;18.00;16.67;;;;;;;;5098977;27;45358;-66
2022/12/30 07:32:15;;;;;;;;;11.33;7.67;;;;;;;;5098278;27;46199;-65
2022/12/30 07:34:40;;;;;;;;;6.75;4.75;;;;;;;;5098571;27;45253;-66
2022/12/30 07:37:05;;;;;;;;;4.75;4.75;;;;;;;;5098025;27;45551;-66
2022/12/30 07:39:31;;;;;;;;;6.75;3.00;;;;;;;;5097599;27;45591;-65
2022/12/30 07:41:56;;;;;;;;;6.25;5.00;;;;;;;;5096374;27;46644;-65
2022/12/30 07:44:21;;;;;;;;;8.25;5.75;;;;;;;;5098418;27;45546;-66
2022/12/30 07:46:47;;;;;;;;;7.50;4.00;;;;;;;;5097975;27;45666;-65
2022/12/30 07:49:12;;;;;;;;;9.00;4.50;;;;;;;;5098107;27;45306;-65
2022/12/30 07:51:37;;;;;;;;;9.00;3.75;;;;;;;;5098006;27;45520;-65
2022/12/30 07:54:03;;;;;;;;;6.25;4.00;;;;;;;;5098517;27;45381;-66
2022/12/30 07:56:28;;;;;;;;;8.75;4.50;;;;;;;;5097651;27;45442;-65
2022/12/30 07:58:54;;;;;;;;;2.00;2.00;;;;;;;;5097686;27;45467;-66
2022/12/30 08:01:19;;;;;;;;;6.00;3.00;;;;;;;;5092036;27;47261;-65
2022/12/30 08:03:44;;;;;;;;;5.75;2.75;;;;;;;;5094404;27;45425;-65
2022/12/30 08:06:14;;;;;;;;;6.33;5.67;;;;;;;;5098194;27;45460;-66
2022/12/30 08:08:39;;;;;;;;;10.25;5.75;;;;;;;;5098055;27;45446;-66
2022/12/30 08:11:05;;;;;;;;;2.75;2.75;;;;;;;;5097966;27;46373;-66
2022/12/30 08:13:34;;;;;;;;;3.75;1.75;;;;;;;;5097686;27;45400;-66
2022/12/30 08:16:07;;;;;;;;;4.00;3.00;;;;;;;;5097972;27;45419;-66
2022/12/30 08:18:32;;;;;;;;;1.00;1.00;;;;;;;;5095863;27;46065;-65
2022/12/30 08:21:01;;;;;;;;;2.25;2.25;;;;;;;;5097678;27;45732;-65
2022/12/30 08:23:28;;;;;;;;;1.25;1.25;;;;;;;;5097565;27;45781;-66
2022/12/30 08:25:53;;;;;;;;;2.50;2.00;;;;;;;;5098045;27;45242;-65
2022/12/30 08:28:18;;;;;;;;;8.67;4.67;;;;;;;;5096222;27;45449;-65
2022/12/30 08:30:43;;;;;;;;;5.25;4.50;;;;;;;;5095162;27;46914;-65
2022/12/30 08:33:08;;;;;;;;;5.00;2.25;;;;;;;;5095657;27;45557;-65
2022/12/30 08:35:34;;;;;;;;;2.00;2.00;;;;;;;;5097395;27;45386;-65
2022/12/30 08:37:59;;;;;;;;;6.25;1.00;;;;;;;;5097955;27;45471;-65
2022/12/30 08:40:24;;;;;;;;;4.50;2.00;;;;;;;;5097500;27;45375;-66
2022/12/30 08:42:49;;;;;;;;;6.25;1.00;;;;;;;;5097735;27;45495;-66
2022/12/30 08:45:15;;;;;;;;;1.25;1.25;;;;;;;;5095896;27;45395;-65
2022/12/30 08:47:40;;;;;;;;;2.00;2.00;;;;;;;;5097851;27;45419;-65
2022/12/30 08:50:05;;;;;;;;;2.50;2.50;;;;;;;;5095788;27;47236;-65
2022/12/30 08:52:30;;;;;;;;;2.50;2.25;;;;;;;;5097411;27;45323;-65
2022/12/30 08:54:56;;;;;;;;;1.75;1.75;;;;;;;;5099840;27;45468;-65
2022/12/30 08:57:21;;;;;;;;;3.00;2.00;;;;;;;;5100194;27;45574;-65
2022/12/30 08:59:46;;;;;;;;;1.00;1.00;;;;;;;;5100981;27;47082;-65
2022/12/30 09:02:12;;;;;;;;;4.50;2.00;;;;;;;;5101251;27;45300;-65
2022/12/30 09:04:37;;;;;;;;;3.25;3.00;;;;;;;;5098320;27;45927;-65
2022/12/30 09:07:03;;;;;;;;;1.50;1.50;;;;;;;;5100389;27;45950;-66
2022/12/30 09:09:29;;;;;;;;;1.00;1.00;;;;;;;;5099460;27;46338;-65
2022/12/30 09:11:54;;;;;;;;;1.50;1.00;;;;;;;;5100115;27;45409;-65
2022/12/30 09:14:19;;;;;;;;;1.75;1.75;;;;;;;;5101211;27;45315;-65
2022/12/30 09:16:45;;;;;;;;;2.00;2.00;;;;;;;;5100937;27;45358;-66
2022/12/30 09:19:10;;;;;;;;;2.50;1.25;;;;;;;;5100286;27;45881;-65
2022/12/30 09:21:35;;;;;;;;;3.50;2.75;;;;;;;;5099791;27;45437;-65
2022/12/30 09:24:01;;;;;;;;;2.25;1.25;;;;;;;;5100440;27;45479;-66
2022/12/30 09:26:27;;;;;;;;;3.50;2.00;;;;;;;;5100392;27;45564;-65
2022/12/30 09:28:52;;;;;;;;;2.50;1.50;;;;;;;;5100287;27;46645;-65
2022/12/30 09:31:17;;;;;;;;;3.00;1.25;;;;;;;;5100660;27;45331;-65
2022/12/30 09:33:43;;;;;;;;;4.75;4.75;;;;;;;;5100743;27;45387;-65
2022/12/30 09:36:08;;;;;;;;;2.00;2.00;;;;;;;;5100774;27;45365;-65
2022/12/30 09:38:34;;;;;;;;;1.00;1.00;;;;;;;;5099317;27;46322;-65
2022/12/30 09:41:17;;;;;;;;;1.75;1.75;;;;;;;;5099509;27;45320;-65
2022/12/30 09:44:04;;;;;;;;;5.00;2.25;;;;;;;;5099614;27;45373;-65
2022/12/30 09:46:32;;;;;;;;;8.75;6.00;;;;;;;;5100526;27;45555;-65
2022/12/30 09:49:02;;;;;;;;;6.25;2.25;;;;;;;;5100195;27;46774;-65
2022/12/30 09:51:34;;;;;;;;;5.50;5.00;;;;;;;;5099745;27;45366;-65
2022/12/30 09:54:10;;;;;;;;;4.00;0.50;;;;;;;;5098940;27;45350;-65
2022/12/30 09:56:40;;;;;;;;;3.75;2.00;;;;;;;;5100696;27;45409;-65
2022/12/30 09:59:19;;;;;;;;;3.00;2.00;;;;;;;;5099608;27;45386;-66
2022/12/30 10:01:47;;;;;;;;;3.50;3.00;;;;;;;;5099994;27;45354;-65
2022/12/30 10:04:17;;;;;;;;;5.75;2.25;;;;;;;;5100144;27;45332;-66
2022/12/30 10:06:54;;;;;;;;;2.75;1.00;;;;;;;;5099353;27;45639;-65
2022/12/30 10:09:20;;;;;;;;;1.00;1.00;;;;;;;;5098822;27;46702;-66
2022/12/30 10:11:45;;;;;;;;;19.67;17.67;;;;;;;;5098868;27;45429;-66
2022/12/30 10:14:43;;;;;;;;;7.00;5.00;;;;;;;;5100289;27;45443;-65
2022/12/30 10:17:23;;;;;;;;;6.50;4.00;;;;;;;;5016774;28;45441;-66
2022/12/30 10:19:51;;;;;;;;;6.25;6.00;;;;;;;;5016620;28;45454;-65
2022/12/30 10:22:23;;;;;;;;;7.50;4.25;;;;;;;;5014611;28;45362;-66
2022/12/30 10:24:51;;;;;;;;;4.00;2.75;;;;;;;;5014613;28;45504;-65
2022/12/30 10:27:22;;;;;;;;;3.25;3.00;;;;;;;;5016355;28;45370;-66
2022/12/30 10:29:47;;;;;;;;;4.75;3.25;;;;;;;;5015823;28;46369;-65
2022/12/30 10:32:19;;;;;;;;;3.75;3.75;;;;;;;;5015839;28;45481;-66
2022/12/30 10:34:45;;;;;;;;;6.00;3.00;;;;;;;;5016032;28;45391;-66
2022/12/30 10:37:13;;;;;;;;;4.00;2.00;;;;;;;;5016806;28;45328;-65
2022/12/30 10:39:43;;;;;;;;;2.50;2.50;;;;;;;;5015234;28;45518;-66
2022/12/30 10:42:08;;;;;;;;;3.50;3.50;;;;;;;;5016396;28;45353;-66
2022/12/30 10:44:54;;;;;;;;;3.75;1.00;;;;;;;;5015218;28;45390;-66
2022/12/30 10:47:22;;;;;;;;;3.50;2.25;;;;;;;;5015533;28;45530;-66
2022/12/30 10:49:47;;;;;;;;;3.75;3.00;;;;;;;;5016425;28;45425;-66
2022/12/30 10:52:13;;;;;;;;;5.00;3.00;;;;;;;;5036791;27;46872;-66
2022/12/30 10:54:38;;;;;;;;;6.25;2.00;;;;;;;;5099166;27;45410;-66
2022/12/30 10:57:04;;;;;;;;;4.50;3.75;;;;;;;;5098789;27;45418;-65
2022/12/30 10:59:30;;;;;;;;;3.75;2.00;;;;;;;;5097091;27;45387;-65
2022/12/30 11:02:00;;;;;;;;;2.25;1.00;;;;;;;;5101222;27;45499;-66
2022/12/30 11:04:32;;;;;;;;;6.25;3.00;;;;;;;;5110499;27;45240;-67
2022/12/30 11:06:59;;;;;;;;;4.00;2.00;;;;;;;;5113224;27;45298;-67
2022/12/30 11:09:24;;;;;;;;;1.00;1.00;;;;;;;;5118431;27;45645;-66
2022/12/30 11:14:44;;;;;;;;;1.00;1.00;;;;;;;;5099186;27;45406;-66
2022/12/30 11:17:09;;;;;;;;;1.75;1.00;;;;;;;;5097879;27;45207;-66
2022/12/30 11:19:34;;;;;;;;;2.00;2.00;;;;;;;;5111809;27;46729;-66
2022/12/30 11:22:02;;;;;;;;;2.00;2.00;;;;;;;;5096353;27;45458;-66
2022/12/30 11:24:27;;;;;;;;;4.75;2.00;;;;;;;;5087825;27;45458;-66
2022/12/30 11:26:52;;;;;;;;;3.25;2.00;;;;;;;;5084320;27;45373;-64
2022/12/30 11:29:19;;;;;;;;;2.00;2.00;;;;;;;;5092451;27;46471;-65
2022/12/30 11:31:47;;;;;;;;;1.75;1.75;;;;;;;;5094385;27;45334;-65
2022/12/30 11:34:30;;;;;;;;;3.50;2.25;;;;;;;;5095951;27;45409;-65
2022/12/30 11:36:55;;;;;;;;;3.00;1.75;;;;;;;;5089090;27;45251;-69
2022/12/30 11:39:25;;;;;;;;;1.00;1.00;;;;;;;;5097949;27;45434;-67
2022/12/30 11:41:55;;;;;;;;;1.00;1.00;;;;;;;;5094833;27;45432;-70
2022/12/30 11:44:24;;;;;;;;;1.00;1.00;;;;;;;;5098418;27;45363;-68
2022/12/30 11:46:51;;;;;;;;;4.00;3.00;;;;;;;;5098256;27;45456;-66
2022/12/30 11:49:35;;;;;;;;;1.00;1.00;;;;;;;;5093665;27;47415;-65
2022/12/30 11:52:03;;;;;;;;;1.00;1.00;;;;;;;;5096591;27;45436;-69
2022/12/30 11:54:32;;;;;;;;;1.00;1.00;;;;;;;;5097735;27;45459;-67
2022/12/30 11:57:06;;;;;;;;;1.75;1.75;;;;;;;;5093755;27;46902;-67
2022/12/30 11:59:32;;;;;;;;;2.25;1.00;;;;;;;;5086573;27;46361;-69
2022/12/30 12:01:59;;;;;;;;;1.00;0.00;;;;;;;;5097136;27;45478;-66
2022/12/30 12:04:35;;;;;;;;;1.00;1.00;;;;;;;;5097401;27;45476;-69
2022/12/30 12:07:01;;;;;;;;;1.00;1.00;;;;;;;;5097273;27;45399;-68
2022/12/30 12:09:40;;;;;;;;;0.00;0.00;;;;;;;;5093947;27;46327;-67
2022/12/30 12:12:10;;;;;;;;;0.75;0.75;;;;;;;;5096624;27;45428;-67
2022/12/30 12:14:40;;;;;;;;;1.00;1.00;;;;;;;;5096807;27;45344;-66
2022/12/30 12:17:16;;;;;;;;;2.00;1.00;;;;;;;;5086728;27;45499;-67
2022/12/30 12:20:03;;;;;;;;;2.00;2.00;;;;;;;;5097477;27;45708;-67
2022/12/30 12:22:38;;;;;;;;;0.00;0.00;;;;;;;;5080164;27;45335;-67
2022/12/30 12:25:06;;;;;;;;;2.00;1.00;;;;;;;;5096399;27;45548;-67
2022/12/30 12:27:32;;;;;;;;;2.00;0.00;;;;;;;;5096394;27;45130;-70
2022/12/30 12:29:57;;;;;;;;;0.00;0.00;;;;;;;;5095309;27;46233;-72
2022/12/30 12:32:33;;;;;;;;;0.50;0.50;;;;;;;;5100697;27;45474;-66
2022/12/30 12:35:17;;;;;;;;;3.25;1.00;;;;;;;;5095628;27;45466;-69
2022/12/30 12:37:48;;;;;;;;;0.00;0.00;;;;;;;;5104472;27;45201;-70
2022/12/30 12:40:16;;;;;;;;;0.00;0.00;;;;;;;;5096978;27;45463;-71
2022/12/30 12:42:44;;;;;;;;;2.50;2.50;;;;;;;;5097589;27;45261;-71
2022/12/30 12:45:29;;;;;;;;;2.50;2.50;;;;;;;;5091568;27;45466;-70
2022/12/30 12:48:00;;;;;;;;;1.00;1.00;;;;;;;;5026076;28;45992;-70
2022/12/30 12:50:38;;;;;;;;;0.00;0.00;;;;;;;;5034198;28;47321;-66
2022/12/30 12:53:09;;;;;;;;;0.50;0.50;;;;;;;;5033585;28;45585;-70
2022/12/30 12:55:53;;;;;;;;;0.00;0.00;;;;;;;;5031876;28;45554;-70
2022/12/30 12:58:28;;;;;;;;;0.00;0.00;;;;;;;;5034620;28;45283;-66
2022/12/30 13:00:56;;;;;;;;;1.00;1.00;;;;;;;;5030460;28;45623;-69
2022/12/30 13:03:34;;;;;;;;;0.00;0.00;;;;;;;;5033806;28;45508;-67
2022/12/30 13:06:24;;;;;;;;;1.00;0.00;;;;;;;;5031185;28;45567;-68
2022/12/30 13:08:58;;;;;;;;;0.00;0.00;;;;;;;;5020683;28;45387;-66
2022/12/30 13:11:37;;;;;;;;;2.00;1.00;;;;;;;;5039530;28;46548;-67
2022/12/30 13:14:21;;;;;;;;;0.00;0.00;;;;;;;;5031925;28;45547;-68
2022/12/30 13:16:50;;;;;;;;;1.00;1.00;;;;;;;;5027892;28;45523;-67
2022/12/30 13:19:18;;;;;;;;;0.00;0.00;;;;;;;;5033085;28;45608;-68
2022/12/30 13:21:45;;;;;;;;;0.00;0.00;;;;;;;;5033251;28;46536;-68
2022/12/30 13:24:16;;;;;;;;;1.00;1.00;;;;;;;;5039099;28;45368;-65
2022/12/30 13:26:42;;;;;;;;;3.75;1.75;;;;;;;;5076267;27;45384;-66
2022/12/30 13:29:11;;;;;;;;;0.75;0.75;;;;;;;;5075753;27;45501;-70
2022/12/30 13:31:41;;;;;;;;;1.25;1.00;;;;;;;;5074795;27;45700;-70
2022/12/30 13:34:15;;;;;;;;;1.00;1.00;;;;;;;;5075841;28;45339;-67
2022/12/30 13:36:40;;;;;;;;;0.00;0.00;;;;;;;;5075304;28;45593;-68
2022/12/30 13:39:09;;;;;;;;;0.00;0.00;;;;;;;;5074961;27;45321;-68
2022/12/30 13:41:52;;;;;;;;;0.00;0.00;;;;;;;;5074294;27;45495;-70
2022/12/30 13:44:19;;;;;;;;;0.00;0.00;;;;;;;;5075487;27;45398;-66
2022/12/30 13:46:52;;;;;;;;;3.00;1.00;;;;;;;;5078348;27;45539;-66
2022/12/30 13:49:20;;;;;;;;;1.00;0.75;;;;;;;;5077126;27;45486;-69
2022/12/30 13:51:53;;;;;;;;;0.25;0.25;;;;;;;;5078802;27;45527;-68
2022/12/30 13:54:19;;;;;;;;;1.00;1.00;;;;;;;;5077729;27;45417;-67
2022/12/30 13:56:45;;;;;;;;;0.50;0.50;;;;;;;;5075793;28;45488;-68
2022/12/30 13:59:26;;;;;;;;;2.00;0.25;;;;;;;;5079018;28;45622;-67
2022/12/30 14:02:11;;;;;;;;;2.50;1.00;;;;;;;;5078048;27;47259;-65
2022/12/30 14:04:44;;;;;;;;;1.00;1.00;;;;;;;;5078856;28;45657;-66
2022/12/30 14:07:29;;;;;;;;;1.00;1.00;;;;;;;;5078972;27;45497;-67
2022/12/30 14:10:15;;;;;;;;;2.00;2.00;;;;;;;;5078998;28;45455;-67
2022/12/30 14:12:40;;;;;;;;;1.50;0.00;;;;;;;;5068775;27;46931;-67
2022/12/30 14:15:24;;;;;;;;;2.00;1.25;;;;;;;;5077511;27;45425;-67
2022/12/30 14:17:50;;;;;;;;;1.00;1.00;;;;;;;;5077391;27;45552;-67
2022/12/30 14:20:21;;;;;;;;;0.00;0.00;;;;;;;;5077858;27;45354;-66
2022/12/30 14:22:49;;;;;;;;;0.00;0.00;;;;;;;;5083316;27;45704;-67
2022/12/30 14:25:14;;;;;;;;;2.00;1.40;;;;;;;;5098658;27;45441;-67
2022/12/30 14:27:52;;;;;;;;;0.00;0.00;;;;;;;;5099083;27;45636;-67
2022/12/30 14:30:17;;;;;;;;;1.25;1.00;;;;;;;;5099015;27;45399;-68
2022/12/30 14:32:43;;;;;;;;;1.00;1.00;;;;;;;;5098069;27;45518;-67
2022/12/30 14:35:14;;;;;;;;;0.00;0.00;;;;;;;;5098069;27;46860;-67
2022/12/30 14:37:39;;;;;;;;;1.00;1.00;;;;;;;;5099200;27;45355;-67
2022/12/30 14:40:24;;;;;;;;;1.00;1.00;;;;;;;;5097246;27;45448;-67
2022/12/30 14:42:53;;;;;;;;;3.75;1.00;;;;;;;;5098582;27;46434;-66
2022/12/30 14:45:21;;;;;;;;;0.25;0.25;;;;;;;;5098756;27;45359;-67
2022/12/30 14:47:46;;;;;;;;;0.75;0.75;;;;;;;;5099083;27;45380;-68
2022/12/30 14:50:13;;;;;;;;;1.50;0.50;;;;;;;;5098394;27;45439;-68
2022/12/30 14:52:59;;;;;;;;;1.00;1.00;;;;;;;;5096567;27;46472;-66
2022/12/30 14:55:26;;;;;;;;;2.00;2.00;;;;;;;;5082772;27;45540;-67
2022/12/30 14:58:10;;;;;;;;;1.00;1.00;;;;;;;;5096936;27;45473;-67
2022/12/30 15:00:36;;;;;;;;;0.00;0.00;;;;;;;;5101007;27;45338;-69
2022/12/30 15:03:01;;;;;;;;;3.00;1.00;;;;;;;;5098449;27;45591;-70
2022/12/30 15:05:31;;;;;;;;;1.00;1.00;;;;;;;;5096259;27;45462;-68
2022/12/30 15:07:58;;;;;;;;;2.00;2.00;;;;;;;;5098047;27;45398;-67
2022/12/30 15:10:30;;;;;;;;;2.00;2.00;;;;;;;;5098375;27;45524;-67
2022/12/30 15:13:03;;;;;;;;;1.25;1.25;;;;;;;;5097445;27;47302;-67
2022/12/30 15:15:28;;;;;;;;;0.75;0.75;;;;;;;;5098367;27;45447;-67
2022/12/30 15:17:53;;;;;;;;;2.00;2.00;;;;;;;;5098351;27;45409;-68
2022/12/30 15:20:29;;;;;;;;;2.00;2.00;;;;;;;;5097920;27;45493;-67
2022/12/30 15:22:54;;;;;;;;;3.25;2.00;;;;;;;;5096919;27;46638;-68
2022/12/30 15:25:21;;;;;;;;;2.50;2.50;;;;;;;;5098063;27;45459;-68
2022/12/30 15:27:51;;;;;;;;;1.00;1.00;;;;;;;;5098317;27;45488;-67
2022/12/30 15:30:17;;;;;;;;;2.00;2.00;;;;;;;;5097577;27;45523;-69
2022/12/30 15:32:42;;;;;;;;;2.00;2.00;;;;;;;;5098025;27;47343;-68
2022/12/30 15:35:20;;;;;;;;;0.25;0.25;;;;;;;;5096677;27;45472;-68
2022/12/30 15:37:46;;;;;;;;;2.50;1.00;;;;;;;;5098175;27;45391;-67
2022/12/30 15:40:16;;;;;;;;;3.25;2.00;;;;;;;;5097502;27;45459;-67